SWR2131 LEVC-LSGG
Flight info
| Callsign | SWR2131 |
|---|---|
| Flight time | 1h 33m |
| Altitude | 36000 |
| Route | ORVUS M871 PTC DCT CDP DCT CHELY DCT LUMAS DCT MAXIR DCT LUSOL DCT BODRU/N0428F280 DCT OKTET DCT IRMAR DCT KINES |
| Aircraft | E190/M-SDE3GILORVW/S |
Departure
| Time | 2026-05-08 18:02 |
|---|---|
| Airport | Valencia Airport (LEVC) |
Arrival
| Time | 2026-05-08 19:35 |
|---|---|
| Airport | Geneva International Airport (LSGG) |
| Time | Latitude | Longitude | Altitude | Speed | Heading |
|---|---|---|---|---|---|
| 2026-05-08 17:07 | 39.49069 | -0.47438 | 208 ft | 0 kts | 46° |
| 2026-05-08 17:33 | 39.49060 | -0.47450 | 206 ft | 3 kts | 39° |
| 2026-05-08 17:34 | 39.49044 | -0.47466 | 200 ft | 2 kts | 41° |
| 2026-05-08 17:34 | 39.49030 | -0.47481 | 208 ft | 3 kts | 25° |
| 2026-05-08 17:34 | 39.49013 | -0.47487 | 200 ft | 3 kts | 343° |
| 2026-05-08 17:34 | 39.48999 | -0.47476 | 207 ft | 2 kts | 301° |
| 2026-05-08 17:35 | 39.48996 | -0.47471 | 206 ft | 1 kts | 297° |
| 2026-05-08 17:39 | 39.49071 | -0.47434 | 195 ft | 9 kts | 45° |
| 2026-05-08 17:39 | 39.49071 | -0.47436 | 194 ft | 0 kts | 46° |
| 2026-05-08 17:41 | 39.49071 | -0.47434 | 193 ft | 9 kts | 45° |
| 2026-05-08 17:41 | 39.49071 | -0.47436 | 194 ft | 0 kts | 46° |
| 2026-05-08 17:49 | 39.49067 | -0.47441 | 194 ft | 2 kts | 44° |
| 2026-05-08 17:49 | 39.49052 | -0.47457 | 194 ft | 3 kts | 41° |
| 2026-05-08 17:49 | 39.49039 | -0.47472 | 194 ft | 3 kts | 29° |
| 2026-05-08 17:50 | 39.49022 | -0.47480 | 195 ft | 3 kts | 355° |
| 2026-05-08 17:50 | 39.49004 | -0.47474 | 195 ft | 3 kts | 322° |
| 2026-05-08 17:50 | 39.48991 | -0.47459 | 195 ft | 2 kts | 298° |
| 2026-05-08 17:50 | 39.48988 | -0.47451 | 195 ft | 0 kts | 297° |
| 2026-05-08 17:54 | 39.48988 | -0.47452 | 195 ft | 1 kts | 297° |
| 2026-05-08 17:55 | 39.48994 | -0.47466 | 195 ft | 3 kts | 297° |
| 2026-05-08 17:55 | 39.49009 | -0.47504 | 196 ft | 7 kts | 297° |
| 2026-05-08 17:55 | 39.49034 | -0.47569 | 204 ft | 10 kts | 296° |
| 2026-05-08 17:55 | 39.49062 | -0.47674 | 204 ft | 14 kts | 279° |
| 2026-05-08 17:56 | 39.49083 | -0.47814 | 204 ft | 17 kts | 290° |
| 2026-05-08 17:56 | 39.49142 | -0.47974 | 209 ft | 22 kts | 295° |
| 2026-05-08 17:56 | 39.49157 | -0.48136 | 208 ft | 19 kts | 234° |
| 2026-05-08 17:56 | 39.49184 | -0.48298 | 211 ft | 20 kts | 296° |
| 2026-05-08 17:57 | 39.49251 | -0.48473 | 218 ft | 23 kts | 297° |
| 2026-05-08 17:57 | 39.49324 | -0.48664 | 224 ft | 25 kts | 296° |
| 2026-05-08 17:57 | 39.49407 | -0.48881 | 221 ft | 28 kts | 297° |
| 2026-05-08 17:57 | 39.49493 | -0.49107 | 221 ft | 28 kts | 296° |
| 2026-05-08 17:58 | 39.49577 | -0.49330 | 226 ft | 27 kts | 296° |
| 2026-05-08 17:58 | 39.49660 | -0.49545 | 233 ft | 26 kts | 295° |
| 2026-05-08 17:58 | 39.49736 | -0.49746 | 235 ft | 24 kts | 295° |
| 2026-05-08 17:58 | 39.49793 | -0.49898 | 242 ft | 16 kts | 290° |
| 2026-05-08 17:59 | 39.49759 | -0.49977 | 244 ft | 8 kts | 208° |
| 2026-05-08 17:59 | 39.49738 | -0.49991 | 245 ft | 1 kts | 207° |
| 2026-05-08 18:00 | 39.49720 | -0.50002 | 245 ft | 6 kts | 207° |
| 2026-05-08 18:01 | 39.49666 | -0.50030 | 246 ft | 11 kts | 182° |
| 2026-05-08 18:01 | 39.49623 | -0.49977 | 243 ft | 0 kts | 115° |
| 2026-05-08 18:01 | 39.49622 | -0.49976 | 243 ft | 2 kts | 115° |
| 2026-05-08 18:01 | 39.49525 | -0.49721 | 235 ft | 69 kts | 116° |
| 2026-05-08 18:02 | 39.49205 | -0.48881 | 218 ft | 137 kts | 116° |
| 2026-05-08 18:02 | 39.48891 | -0.48045 | 268 ft | 169 kts | 115° |
| 2026-05-08 18:02 | 39.48180 | -0.46162 | 1378 ft | 181 kts | 114° |
| 2026-05-08 18:02 | 39.47647 | -0.44621 | 2333 ft | 191 kts | 112° |
| 2026-05-08 18:03 | 39.47083 | -0.43020 | 3286 ft | 203 kts | 114° |
| 2026-05-08 18:03 | 39.46513 | -0.41509 | 4108 ft | 183 kts | 119° |
| 2026-05-08 18:03 | 39.45752 | -0.40120 | 4647 ft | 195 kts | 133° |
| 2026-05-08 18:03 | 39.44764 | -0.38786 | 5013 ft | 219 kts | 136° |
| 2026-05-08 18:04 | 39.43646 | -0.37328 | 5228 ft | 239 kts | 136° |
| 2026-05-08 18:04 | 39.42452 | -0.35739 | 5903 ft | 252 kts | 134° |
| 2026-05-08 18:04 | 39.41260 | -0.34050 | 6792 ft | 255 kts | 134° |
| 2026-05-08 18:04 | 39.40148 | -0.32178 | 7294 ft | 278 kts | 119° |
| 2026-05-08 18:05 | 39.39657 | -0.29736 | 7355 ft | 287 kts | 91° |
| 2026-05-08 18:05 | 39.39811 | -0.27104 | 7970 ft | 295 kts | 85° |
| 2026-05-08 18:05 | 39.39982 | -0.24438 | 8808 ft | 299 kts | 86° |
| 2026-05-08 18:05 | 39.39854 | -0.21749 | 9632 ft | 302 kts | 106° |
| 2026-05-08 18:06 | 39.39220 | -0.19125 | 10291 ft | 314 kts | 108° |
| 2026-05-08 18:06 | 39.38828 | -0.17248 | 10597 ft | 326 kts | 104° |
| 2026-05-08 18:06 | 39.38286 | -0.13332 | 11422 ft | 341 kts | 100° |
| 2026-05-08 18:06 | 39.37960 | -0.10259 | 12203 ft | 348 kts | 99° |
| 2026-05-08 18:07 | 39.37654 | -0.07129 | 13034 ft | 355 kts | 99° |
| 2026-05-08 18:07 | 39.37352 | -0.03930 | 13879 ft | 362 kts | 99° |
| 2026-05-08 18:07 | 39.37153 | -0.01779 | 14440 ft | 365 kts | 100° |
| 2026-05-08 18:07 | 39.36748 | 0.02629 | 15604 ft | 373 kts | 100° |
| 2026-05-08 18:08 | 39.36547 | 0.04842 | 16169 ft | 376 kts | 100° |
| 2026-05-08 18:08 | 39.36241 | 0.08222 | 16997 ft | 381 kts | 100° |
| 2026-05-08 18:08 | 39.35935 | 0.11640 | 17771 ft | 386 kts | 100° |
| 2026-05-08 18:08 | 39.35625 | 0.15105 | 18506 ft | 391 kts | 100° |
| 2026-05-08 18:09 | 39.35313 | 0.18617 | 19186 ft | 395 kts | 100° |
| 2026-05-08 18:09 | 39.35000 | 0.22161 | 19872 ft | 400 kts | 101° |
| 2026-05-08 18:09 | 39.34683 | 0.25759 | 20570 ft | 404 kts | 101° |
| 2026-05-08 18:09 | 39.34365 | 0.29384 | 21227 ft | 409 kts | 101° |
| 2026-05-08 18:10 | 39.34045 | 0.33048 | 21862 ft | 413 kts | 101° |
| 2026-05-08 18:10 | 39.33722 | 0.36753 | 22458 ft | 417 kts | 101° |
| 2026-05-08 18:10 | 39.33397 | 0.40492 | 23022 ft | 421 kts | 101° |
| 2026-05-08 18:10 | 39.33170 | 0.44282 | 23574 ft | 428 kts | 94° |
| 2026-05-08 18:11 | 39.33268 | 0.48155 | 24040 ft | 434 kts | 89° |
| 2026-05-08 18:11 | 39.33493 | 0.52062 | 24513 ft | 439 kts | 89° |
| 2026-05-08 18:11 | 39.33708 | 0.56015 | 24979 ft | 443 kts | 89° |
| 2026-05-08 18:11 | 39.33906 | 0.60008 | 25443 ft | 447 kts | 89° |
| 2026-05-08 18:12 | 39.34093 | 0.64042 | 25893 ft | 452 kts | 89° |
| 2026-05-08 18:12 | 39.34276 | 0.68113 | 26337 ft | 456 kts | 89° |
| 2026-05-08 18:12 | 39.34457 | 0.72221 | 26769 ft | 460 kts | 89° |
| 2026-05-08 18:12 | 39.34638 | 0.76364 | 27184 ft | 464 kts | 89° |
| 2026-05-08 18:13 | 39.34818 | 0.80557 | 27528 ft | 470 kts | 89° |
| 2026-05-08 18:13 | 39.35000 | 0.84795 | 27902 ft | 475 kts | 89° |
| 2026-05-08 18:13 | 39.35182 | 0.89065 | 28285 ft | 479 kts | 89° |
| 2026-05-08 18:13 | 39.35364 | 0.93378 | 28666 ft | 482 kts | 89° |
| 2026-05-08 18:14 | 39.35546 | 0.97725 | 29045 ft | 486 kts | 89° |
| 2026-05-08 18:14 | 39.35728 | 1.02095 | 29409 ft | 489 kts | 89° |
| 2026-05-08 18:14 | 39.35909 | 1.06497 | 29757 ft | 493 kts | 89° |
| 2026-05-08 18:14 | 39.36090 | 1.10933 | 30092 ft | 496 kts | 89° |
| 2026-05-08 18:15 | 39.36270 | 1.15405 | 30328 ft | 501 kts | 88° |
| 2026-05-08 18:15 | 39.36451 | 1.19920 | 30543 ft | 505 kts | 88° |
| 2026-05-08 18:15 | 39.36630 | 1.24414 | 30801 ft | 509 kts | 89° |
| 2026-05-08 18:15 | 39.36810 | 1.28994 | 31050 ft | 512 kts | 89° |
| 2026-05-08 18:16 | 39.36990 | 1.33613 | 31305 ft | 515 kts | 89° |
| 2026-05-08 18:16 | 39.37169 | 1.38256 | 31551 ft | 519 kts | 89° |
| 2026-05-08 18:16 | 39.37347 | 1.42923 | 31791 ft | 522 kts | 89° |
| 2026-05-08 18:16 | 39.37520 | 1.47618 | 32019 ft | 525 kts | 89° |
| 2026-05-08 18:17 | 39.37693 | 1.52338 | 32239 ft | 528 kts | 89° |
| 2026-05-08 18:17 | 39.37864 | 1.57090 | 32476 ft | 530 kts | 89° |
| 2026-05-08 18:17 | 39.38035 | 1.61850 | 32749 ft | 531 kts | 89° |
| 2026-05-08 18:17 | 39.38204 | 1.66619 | 33022 ft | 532 kts | 89° |
| 2026-05-08 18:18 | 39.38372 | 1.71395 | 33290 ft | 532 kts | 89° |
| 2026-05-08 18:18 | 39.38539 | 1.76183 | 33533 ft | 534 kts | 89° |
| 2026-05-08 18:18 | 39.38703 | 1.80978 | 33777 ft | 535 kts | 89° |
| 2026-05-08 18:18 | 39.38866 | 1.85789 | 34010 ft | 536 kts | 90° |
| 2026-05-08 18:19 | 39.39028 | 1.90602 | 34253 ft | 535 kts | 90° |
| 2026-05-08 18:19 | 39.39186 | 1.95396 | 34552 ft | 533 kts | 89° |
| 2026-05-08 18:19 | 39.39343 | 2.00172 | 34840 ft | 530 kts | 89° |
| 2026-05-08 18:19 | 39.39496 | 2.04928 | 35117 ft | 529 kts | 90° |
| 2026-05-08 18:20 | 39.39647 | 2.09676 | 35349 ft | 528 kts | 90° |
| 2026-05-08 18:20 | 39.39796 | 2.14418 | 35595 ft | 527 kts | 90° |
| 2026-05-08 18:20 | 39.39943 | 2.19153 | 35848 ft | 526 kts | 90° |
| 2026-05-08 18:20 | 39.40087 | 2.23843 | 36098 ft | 523 kts | 90° |
| 2026-05-08 18:21 | 39.40370 | 2.33331 | 36070 ft | 534 kts | 90° |
| 2026-05-08 18:21 | 39.40651 | 2.42972 | 35974 ft | 545 kts | 90° |
| 2026-05-08 18:22 | 39.40922 | 2.52786 | 35975 ft | 548 kts | 90° |
| 2026-05-08 18:22 | 39.41185 | 2.62629 | 35987 ft | 548 kts | 90° |
| 2026-05-08 18:23 | 39.41440 | 2.72473 | 35977 ft | 548 kts | 90° |
| 2026-05-08 18:23 | 39.41688 | 2.82323 | 35974 ft | 548 kts | 90° |
| 2026-05-08 18:24 | 39.41928 | 2.92195 | 35994 ft | 548 kts | 90° |
| 2026-05-08 18:24 | 39.42160 | 3.02050 | 35996 ft | 548 kts | 90° |
| 2026-05-08 18:25 | 39.42383 | 3.11905 | 35992 ft | 549 kts | 90° |
| 2026-05-08 18:25 | 39.42924 | 3.21721 | 36005 ft | 549 kts | 74° |
| 2026-05-08 18:26 | 39.44368 | 3.26253 | 36030 ft | 541 kts | 53° |
| 2026-05-08 18:26 | 39.46727 | 3.29934 | 36051 ft | 524 kts | 33° |
| 2026-05-08 18:26 | 39.49718 | 3.32411 | 36092 ft | 499 kts | 12° |
| 2026-05-08 18:26 | 39.52959 | 3.33803 | 36068 ft | 490 kts | 6° |
| 2026-05-08 18:27 | 39.58326 | 3.36285 | 35991 ft | 498 kts | 13° |
| 2026-05-08 18:27 | 39.65727 | 3.40786 | 36005 ft | 505 kts | 17° |
| 2026-05-08 18:28 | 39.72008 | 3.44910 | 35984 ft | 510 kts | 20° |
| 2026-05-08 18:28 | 39.78110 | 3.49666 | 35977 ft | 510 kts | 22° |
| 2026-05-08 18:29 | 39.84187 | 3.54378 | 35980 ft | 508 kts | 21° |
| 2026-05-08 18:29 | 39.90285 | 3.59059 | 36018 ft | 509 kts | 21° |
| 2026-05-08 18:30 | 39.96392 | 3.63749 | 36013 ft | 509 kts | 21° |
| 2026-05-08 18:30 | 40.02471 | 3.68427 | 36016 ft | 506 kts | 22° |
| 2026-05-08 18:31 | 40.08538 | 3.73102 | 36018 ft | 506 kts | 22° |
| 2026-05-08 18:31 | 40.14563 | 3.77756 | 36017 ft | 507 kts | 22° |
| 2026-05-08 18:32 | 40.20621 | 3.82446 | 36017 ft | 505 kts | 23° |
| 2026-05-08 18:32 | 40.26647 | 3.87121 | 36021 ft | 503 kts | 23° |
| 2026-05-08 18:33 | 40.32671 | 3.91802 | 36025 ft | 504 kts | 23° |
| 2026-05-08 18:33 | 40.38700 | 3.96498 | 36021 ft | 504 kts | 23° |
| 2026-05-08 18:34 | 40.44721 | 4.01197 | 36025 ft | 502 kts | 24° |
| 2026-05-08 18:34 | 40.50724 | 4.05894 | 36025 ft | 502 kts | 24° |
| 2026-05-08 18:35 | 40.56733 | 4.10605 | 36024 ft | 503 kts | 24° |
| 2026-05-08 18:35 | 40.62733 | 4.15319 | 36027 ft | 502 kts | 24° |
| 2026-05-08 18:36 | 40.68733 | 4.20040 | 36025 ft | 502 kts | 24° |
| 2026-05-08 18:36 | 40.74726 | 4.24769 | 36031 ft | 502 kts | 24° |
| 2026-05-08 18:37 | 40.80718 | 4.29505 | 36030 ft | 502 kts | 24° |
| 2026-05-08 18:37 | 40.86663 | 4.34215 | 36037 ft | 500 kts | 25° |
| 2026-05-08 18:38 | 40.92640 | 4.38959 | 36029 ft | 501 kts | 25° |
| 2026-05-08 18:38 | 40.98612 | 4.43710 | 36034 ft | 501 kts | 25° |
| 2026-05-08 18:39 | 41.04591 | 4.48476 | 36060 ft | 501 kts | 25° |
| 2026-05-08 18:39 | 41.07648 | 4.50614 | 36046 ft | 491 kts | 14° |
| 2026-05-08 18:39 | 41.10906 | 4.51781 | 36077 ft | 482 kts | 4° |
| 2026-05-08 18:40 | 41.17511 | 4.53244 | 36024 ft | 480 kts | 2° |
| 2026-05-08 18:40 | 41.24106 | 4.54747 | 36026 ft | 481 kts | 3° |
| 2026-05-08 18:41 | 41.30706 | 4.56303 | 36019 ft | 482 kts | 4° |
| 2026-05-08 18:41 | 41.37315 | 4.57879 | 36036 ft | 481 kts | 4° |
| 2026-05-08 18:42 | 41.43907 | 4.59455 | 36041 ft | 481 kts | 4° |
| 2026-05-08 18:42 | 41.50497 | 4.61034 | 36033 ft | 482 kts | 5° |
| 2026-05-08 18:43 | 41.57097 | 4.62620 | 36040 ft | 482 kts | 5° |
| 2026-05-08 18:43 | 41.63652 | 4.64196 | 36041 ft | 482 kts | 5° |
| 2026-05-08 18:44 | 41.70290 | 4.65796 | 36036 ft | 482 kts | 5° |
| 2026-05-08 18:44 | 41.73513 | 4.66858 | 36050 ft | 487 kts | 17° |
| 2026-05-08 18:44 | 41.76560 | 4.68911 | 36062 ft | 493 kts | 27° |
| 2026-05-08 18:45 | 41.82415 | 4.73762 | 36031 ft | 494 kts | 28° |
| 2026-05-08 18:45 | 41.88278 | 4.78570 | 36034 ft | 494 kts | 28° |
| 2026-05-08 18:46 | 41.94138 | 4.83323 | 36031 ft | 491 kts | 28° |
| 2026-05-08 18:46 | 41.99992 | 4.88074 | 36031 ft | 492 kts | 28° |
| 2026-05-08 18:47 | 42.05850 | 4.92837 | 36041 ft | 492 kts | 28° |
| 2026-05-08 18:47 | 42.11690 | 4.97595 | 36032 ft | 487 kts | 29° |
| 2026-05-08 18:48 | 42.17468 | 5.02314 | 36039 ft | 486 kts | 29° |
| 2026-05-08 18:48 | 42.23258 | 5.07053 | 36037 ft | 487 kts | 29° |
| 2026-05-08 18:49 | 42.29055 | 5.11808 | 36036 ft | 487 kts | 29° |
| 2026-05-08 18:49 | 42.34805 | 5.16533 | 36032 ft | 487 kts | 30° |
| 2026-05-08 18:50 | 42.40596 | 5.21304 | 36030 ft | 487 kts | 30° |
| 2026-05-08 18:50 | 42.45440 | 5.25303 | 36031 ft | 487 kts | 30° |
| 2026-05-08 18:51 | 42.52155 | 5.30856 | 36029 ft | 486 kts | 30° |
| 2026-05-08 18:51 | 42.57915 | 5.35634 | 36036 ft | 483 kts | 30° |
| 2026-05-08 18:52 | 42.63652 | 5.40400 | 36033 ft | 484 kts | 30° |
| 2026-05-08 18:52 | 42.69390 | 5.45178 | 36036 ft | 484 kts | 30° |
| 2026-05-08 18:53 | 42.75125 | 5.49964 | 36038 ft | 484 kts | 30° |
| 2026-05-08 18:53 | 42.79886 | 5.53947 | 36034 ft | 484 kts | 30° |
| 2026-05-08 18:54 | 42.85619 | 5.58750 | 36039 ft | 484 kts | 30° |
| 2026-05-08 18:54 | 42.91350 | 5.63562 | 36041 ft | 482 kts | 31° |
| 2026-05-08 18:55 | 42.99910 | 5.70769 | 36031 ft | 482 kts | 31° |
| 2026-05-08 18:56 | 43.05600 | 5.75579 | 36037 ft | 480 kts | 30° |
| 2026-05-08 18:56 | 43.11283 | 5.80388 | 36034 ft | 480 kts | 31° |
| 2026-05-08 18:57 | 43.16955 | 5.85197 | 36038 ft | 480 kts | 31° |
| 2026-05-08 18:57 | 43.22627 | 5.90016 | 36052 ft | 480 kts | 31° |
| 2026-05-08 18:58 | 43.28300 | 5.94850 | 36049 ft | 480 kts | 31° |
| 2026-05-08 18:58 | 43.33958 | 5.99682 | 36046 ft | 479 kts | 31° |
| 2026-05-08 18:59 | 43.39751 | 6.04122 | 36019 ft | 475 kts | 15° |
| 2026-05-08 18:59 | 43.42932 | 6.04903 | 36091 ft | 470 kts | 2° |
| 2026-05-08 18:59 | 43.46202 | 6.05188 | 36067 ft | 471 kts | 0° |
| 2026-05-08 19:00 | 43.52730 | 6.05643 | 36017 ft | 470 kts | 0° |
| 2026-05-08 19:00 | 43.59254 | 6.06192 | 36031 ft | 470 kts | 1° |
| 2026-05-08 19:01 | 43.65786 | 6.06763 | 36038 ft | 470 kts | 1° |
| 2026-05-08 19:01 | 43.72311 | 6.07338 | 36022 ft | 469 kts | 1° |
| 2026-05-08 19:02 | 43.78750 | 6.08796 | 36055 ft | 476 kts | 20° |
| 2026-05-08 19:02 | 43.84722 | 6.12829 | 36025 ft | 478 kts | 25° |
| 2026-05-08 19:03 | 43.90643 | 6.16984 | 36035 ft | 476 kts | 24° |
| 2026-05-08 19:03 | 43.96570 | 6.21078 | 36032 ft | 477 kts | 24° |
| 2026-05-08 19:04 | 44.02513 | 6.25177 | 36047 ft | 476 kts | 24° |
| 2026-05-08 19:04 | 44.08445 | 6.29276 | 36044 ft | 476 kts | 24° |
| 2026-05-08 19:05 | 44.14384 | 6.33389 | 36040 ft | 477 kts | 24° |
| 2026-05-08 19:05 | 44.20317 | 6.37505 | 36050 ft | 476 kts | 24° |
| 2026-05-08 19:06 | 44.26229 | 6.41583 | 36036 ft | 477 kts | 23° |
| 2026-05-08 19:06 | 44.32188 | 6.45676 | 36061 ft | 477 kts | 24° |
| 2026-05-08 19:07 | 44.38132 | 6.49774 | 36060 ft | 476 kts | 23° |
| 2026-05-08 19:07 | 44.44072 | 6.53880 | 36062 ft | 476 kts | 23° |
| 2026-05-08 19:08 | 44.49987 | 6.57981 | 36066 ft | 475 kts | 23° |
| 2026-05-08 19:08 | 44.55909 | 6.62124 | 36072 ft | 475 kts | 23° |
| 2026-05-08 19:09 | 44.61823 | 6.66262 | 36065 ft | 475 kts | 23° |
| 2026-05-08 19:09 | 44.67733 | 6.70406 | 36073 ft | 475 kts | 23° |
| 2026-05-08 19:10 | 44.73647 | 6.74572 | 36077 ft | 475 kts | 23° |
| 2026-05-08 19:10 | 44.79624 | 6.78435 | 36083 ft | 469 kts | 11° |
| 2026-05-08 19:10 | 44.82807 | 6.78945 | 36119 ft | 457 kts | 354° |
| 2026-05-08 19:11 | 44.85979 | 6.78757 | 36082 ft | 456 kts | 352° |
| 2026-05-08 19:11 | 44.92328 | 6.78265 | 36065 ft | 457 kts | 352° |
| 2026-05-08 19:12 | 44.98633 | 6.77794 | 36061 ft | 456 kts | 352° |
| 2026-05-08 19:12 | 45.05017 | 6.77349 | 36083 ft | 456 kts | 352° |
| 2026-05-08 19:13 | 45.11319 | 6.76908 | 36088 ft | 456 kts | 352° |
| 2026-05-08 19:13 | 45.17674 | 6.76475 | 36076 ft | 457 kts | 352° |
| 2026-05-08 19:14 | 45.24012 | 6.76038 | 36070 ft | 456 kts | 352° |
| 2026-05-08 19:14 | 45.30328 | 6.75602 | 35629 ft | 447 kts | 352° |
| 2026-05-08 19:14 | 45.33366 | 6.75313 | 35351 ft | 429 kts | 346° |
| 2026-05-08 19:15 | 45.36290 | 6.74623 | 34677 ft | 423 kts | 343° |
| 2026-05-08 19:15 | 45.39154 | 6.73846 | 34171 ft | 416 kts | 343° |
| 2026-05-08 19:15 | 45.41992 | 6.73075 | 33568 ft | 412 kts | 343° |
| 2026-05-08 19:15 | 45.44778 | 6.72326 | 33046 ft | 405 kts | 343° |
| 2026-05-08 19:16 | 45.47530 | 6.71592 | 32496 ft | 399 kts | 344° |
| 2026-05-08 19:16 | 45.50230 | 6.70875 | 31979 ft | 392 kts | 344° |
| 2026-05-08 19:16 | 45.52902 | 6.70163 | 31474 ft | 387 kts | 345° |
| 2026-05-08 19:16 | 45.55545 | 6.69471 | 30933 ft | 388 kts | 345° |
| 2026-05-08 19:17 | 45.58210 | 6.68782 | 30463 ft | 391 kts | 346° |
| 2026-05-08 19:17 | 45.60891 | 6.68092 | 29861 ft | 392 kts | 346° |
| 2026-05-08 19:17 | 45.63567 | 6.67400 | 29397 ft | 391 kts | 346° |
| 2026-05-08 19:17 | 45.66257 | 6.66704 | 28858 ft | 395 kts | 346° |
| 2026-05-08 19:18 | 45.68977 | 6.66015 | 28338 ft | 400 kts | 347° |
| 2026-05-08 19:18 | 45.71695 | 6.65304 | 27815 ft | 404 kts | 347° |
| 2026-05-08 19:18 | 45.74458 | 6.64579 | 27273 ft | 402 kts | 347° |
| 2026-05-08 19:18 | 45.77203 | 6.63852 | 26733 ft | 400 kts | 347° |
| 2026-05-08 19:19 | 45.79929 | 6.63109 | 26218 ft | 397 kts | 347° |
| 2026-05-08 19:19 | 45.82636 | 6.62371 | 25688 ft | 395 kts | 347° |
| 2026-05-08 19:19 | 45.85326 | 6.61639 | 25158 ft | 393 kts | 347° |
| 2026-05-08 19:19 | 45.88024 | 6.60905 | 24210 ft | 399 kts | 347° |
| 2026-05-08 19:20 | 45.90797 | 6.60150 | 22834 ft | 411 kts | 348° |
| 2026-05-08 19:20 | 45.91748 | 6.59893 | 22321 ft | 414 kts | 348° |
| 2026-05-08 19:20 | 45.96377 | 6.58639 | 21375 ft | 397 kts | 348° |
| 2026-05-08 19:20 | 45.99052 | 6.57915 | 20895 ft | 385 kts | 347° |
| 2026-05-08 19:21 | 46.01652 | 6.57208 | 20383 ft | 376 kts | 347° |
| 2026-05-08 19:21 | 46.04102 | 6.56084 | 19894 ft | 364 kts | 330° |
| 2026-05-08 19:21 | 46.06091 | 6.53969 | 19410 ft | 352 kts | 310° |
| 2026-05-08 19:21 | 46.07544 | 6.51173 | 18969 ft | 348 kts | 302° |
| 2026-05-08 19:22 | 46.08933 | 6.48306 | 18465 ft | 350 kts | 303° |
| 2026-05-08 19:22 | 46.10320 | 6.45436 | 17997 ft | 348 kts | 302° |
| 2026-05-08 19:22 | 46.11672 | 6.42541 | 17548 ft | 347 kts | 301° |
| 2026-05-08 19:22 | 46.13021 | 6.39651 | 17087 ft | 345 kts | 301° |
| 2026-05-08 19:23 | 46.14343 | 6.36831 | 16637 ft | 344 kts | 301° |
| 2026-05-08 19:23 | 46.15683 | 6.33980 | 16196 ft | 341 kts | 301° |
| 2026-05-08 19:23 | 46.17005 | 6.31159 | 15643 ft | 337 kts | 301° |
| 2026-05-08 19:23 | 46.18169 | 6.28293 | 15200 ft | 326 kts | 287° |
| 2026-05-08 19:24 | 46.18411 | 6.25154 | 14806 ft | 311 kts | 259° |
| 2026-05-08 19:24 | 46.17599 | 6.22359 | 14441 ft | 301 kts | 231° |
| 2026-05-08 19:24 | 46.16146 | 6.20244 | 14057 ft | 294 kts | 224° |
| 2026-05-08 19:24 | 46.14724 | 6.18145 | 13632 ft | 290 kts | 226° |
| 2026-05-08 19:25 | 46.13355 | 6.16035 | 13267 ft | 286 kts | 226° |
| 2026-05-08 19:25 | 46.11991 | 6.13957 | 12866 ft | 286 kts | 226° |
| 2026-05-08 19:25 | 46.10614 | 6.11893 | 12514 ft | 285 kts | 226° |
| 2026-05-08 19:25 | 46.09226 | 6.09833 | 12091 ft | 287 kts | 225° |
| 2026-05-08 19:26 | 46.07817 | 6.07784 | 11623 ft | 287 kts | 225° |
| 2026-05-08 19:26 | 46.06416 | 6.05775 | 11290 ft | 283 kts | 225° |
| 2026-05-08 19:26 | 46.05028 | 6.03780 | 10928 ft | 280 kts | 225° |
| 2026-05-08 19:26 | 46.03654 | 6.01804 | 10573 ft | 279 kts | 225° |
| 2026-05-08 19:27 | 46.02282 | 5.99832 | 10194 ft | 278 kts | 225° |
| 2026-05-08 19:27 | 46.00917 | 5.97872 | 9833 ft | 277 kts | 225° |
| 2026-05-08 19:27 | 45.99565 | 5.95928 | 9479 ft | 272 kts | 225° |
| 2026-05-08 19:27 | 45.98243 | 5.94026 | 9139 ft | 266 kts | 225° |
| 2026-05-08 19:28 | 45.97048 | 5.92049 | 8795 ft | 261 kts | 240° |
| 2026-05-08 19:28 | 45.96632 | 5.89551 | 8448 ft | 259 kts | 273° |
| 2026-05-08 19:28 | 45.97211 | 5.87173 | 8148 ft | 258 kts | 303° |
| 2026-05-08 19:28 | 45.98406 | 5.85248 | 7793 ft | 259 kts | 314° |
| 2026-05-08 19:29 | 45.99738 | 5.83492 | 7443 ft | 258 kts | 315° |
| 2026-05-08 19:29 | 46.01169 | 5.81939 | 7037 ft | 262 kts | 335° |
| 2026-05-08 19:29 | 46.02960 | 5.81619 | 6703 ft | 263 kts | 10° |
| 2026-05-08 19:29 | 46.04604 | 5.82695 | 6435 ft | 260 kts | 37° |
| 2026-05-08 19:30 | 46.05866 | 5.84581 | 5992 ft | 262 kts | 51° |
| 2026-05-08 19:30 | 46.07055 | 5.86480 | 5716 ft | 249 kts | 44° |
| 2026-05-08 19:30 | 46.08304 | 5.88131 | 5399 ft | 239 kts | 43° |
| 2026-05-08 19:30 | 46.09449 | 5.89800 | 5121 ft | 231 kts | 47° |
| 2026-05-08 19:31 | 46.10538 | 5.91456 | 4820 ft | 224 kts | 46° |
| 2026-05-08 19:31 | 46.11626 | 5.93008 | 4554 ft | 215 kts | 46° |
| 2026-05-08 19:31 | 46.12639 | 5.94490 | 4271 ft | 202 kts | 47° |
| 2026-05-08 19:31 | 46.13591 | 5.95899 | 4002 ft | 191 kts | 46° |
| 2026-05-08 19:32 | 46.14505 | 5.97229 | 3759 ft | 182 kts | 46° |
| 2026-05-08 19:32 | 46.15372 | 5.98498 | 3512 ft | 174 kts | 46° |
| 2026-05-08 19:32 | 46.16202 | 5.99717 | 3286 ft | 165 kts | 46° |
| 2026-05-08 19:32 | 46.16985 | 6.00864 | 3071 ft | 157 kts | 46° |
| 2026-05-08 19:33 | 46.17751 | 6.01986 | 2874 ft | 157 kts | 46° |
| 2026-05-08 19:33 | 46.18520 | 6.03116 | 2687 ft | 158 kts | 47° |
| 2026-05-08 19:33 | 46.19264 | 6.04209 | 2454 ft | 150 kts | 47° |
| 2026-05-08 19:33 | 46.19978 | 6.05256 | 2253 ft | 139 kts | 47° |
| 2026-05-08 19:34 | 46.20631 | 6.06221 | 2074 ft | 134 kts | 46° |
| 2026-05-08 19:34 | 46.21280 | 6.07183 | 1908 ft | 135 kts | 45° |
| 2026-05-08 19:34 | 46.21943 | 6.08162 | 1724 ft | 137 kts | 44° |
| 2026-05-08 19:34 | 46.22611 | 6.09146 | 1510 ft | 140 kts | 44° |
| 2026-05-08 19:35 | 46.23300 | 6.10150 | 1407 ft | 131 kts | 44° |
| 2026-05-08 19:35 | 46.23837 | 6.10940 | 1379 ft | 86 kts | 45° |
| 2026-05-08 19:35 | 46.24149 | 6.11400 | 1374 ft | 46 kts | 44° |
| 2026-05-08 19:35 | 46.24296 | 6.11657 | 1369 ft | 30 kts | 70° |
| 2026-05-08 19:36 | 46.24328 | 6.11802 | 1367 ft | 8 kts | 76° |
| 2026-05-08 19:36 | 46.24334 | 6.11835 | 1365 ft | 5 kts | 76° |
| 2026-05-08 19:36 | 46.24337 | 6.11911 | 1364 ft | 10 kts | 107° |
| 2026-05-08 19:36 | 46.24273 | 6.11911 | 1360 ft | 13 kts | 221° |
| 2026-05-08 19:37 | 46.24205 | 6.11815 | 1362 ft | 14 kts | 225° |
| 2026-05-08 19:37 | 46.24139 | 6.11717 | 1365 ft | 13 kts | 226° |
| 2026-05-08 19:37 | 46.24076 | 6.11623 | 1367 ft | 13 kts | 226° |
| 2026-05-08 19:37 | 46.24008 | 6.11523 | 1370 ft | 15 kts | 225° |
| 2026-05-08 19:38 | 46.23929 | 6.11410 | 1373 ft | 17 kts | 225° |
| 2026-05-08 19:38 | 46.23842 | 6.11282 | 1376 ft | 19 kts | 225° |
| 2026-05-08 19:38 | 46.23744 | 6.11137 | 1381 ft | 20 kts | 225° |
| 2026-05-08 19:38 | 46.23657 | 6.11088 | 1386 ft | 13 kts | 146° |
| 2026-05-08 19:39 | 46.23578 | 6.11159 | 1389 ft | 14 kts | 196° |
| 2026-05-08 19:39 | 46.23495 | 6.11049 | 1398 ft | 18 kts | 225° |
| 2026-05-08 19:39 | 46.23399 | 6.10909 | 1400 ft | 16 kts | 225° |
| 2026-05-08 19:39 | 46.23318 | 6.10805 | 1397 ft | 17 kts | 205° |
| 2026-05-08 19:40 | 46.23213 | 6.10726 | 1391 ft | 16 kts | 225° |
| 2026-05-08 19:40 | 46.23169 | 6.10664 | 1393 ft | 12 kts | 225° |
| 2026-05-08 19:40 | 46.23132 | 6.10632 | 1397 ft | 5 kts | 163° |
| 2026-05-08 19:40 | 46.23106 | 6.10660 | 1395 ft | 4 kts | 136° |
| 2026-05-08 19:41 | 46.23101 | 6.10667 | 1393 ft | 0 kts | 136° |